sensor_id;sensor_type;location;lat;lon;timestamp;P1;durP1;ratioP1;P2;durP2;ratioP2
73850;SDS011;62190;51.548;5.688;2022-09-09T00:01:06;11.22;;;5.60;;
73850;SDS011;62190;51.548;5.688;2022-09-09T00:04:00;8.15;;;5.12;;
73850;SDS011;62190;51.548;5.688;2022-09-09T00:06:30;9.63;;;5.97;;
73850;SDS011;62190;51.548;5.688;2022-09-09T00:11:46;7.05;;;4.17;;
73850;SDS011;62190;51.548;5.688;2022-09-09T00:14:39;8.88;;;5.10;;
73850;SDS011;62190;51.548;5.688;2022-09-09T00:17:09;6.90;;;4.75;;
73850;SDS011;62190;51.548;5.688;2022-09-09T00:19:56;9.80;;;5.85;;
73850;SDS011;62190;51.548;5.688;2022-09-09T00:22:29;9.73;;;5.47;;
73850;SDS011;62190;51.548;5.688;2022-09-09T00:25:08;8.43;;;4.80;;
73850;SDS011;62190;51.548;5.688;2022-09-09T00:27:48;7.42;;;4.33;;
73850;SDS011;62190;51.548;5.688;2022-09-09T00:30:18;5.72;;;3.92;;
73850;SDS011;62190;51.548;5.688;2022-09-09T00:32:50;6.90;;;4.03;;
73850;SDS011;62190;51.548;5.688;2022-09-09T00:35:36;6.33;;;4.10;;
73850;SDS011;62190;51.548;5.688;2022-09-09T00:38:14;8.90;;;5.03;;
73850;SDS011;62190;51.548;5.688;2022-09-09T00:43:37;8.35;;;4.95;;
73850;SDS011;62190;51.548;5.688;2022-09-09T00:51:59;9.30;;;5.03;;
73850;SDS011;62190;51.548;5.688;2022-09-09T00:54:31;6.50;;;4.40;;
73850;SDS011;62190;51.548;5.688;2022-09-09T00:57:18;8.53;;;5.28;;
73850;SDS011;62190;51.548;5.688;2022-09-09T00:59:56;10.05;;;5.50;;
73850;SDS011;62190;51.548;5.688;2022-09-09T01:02:45;5.47;;;4.12;;
73850;SDS011;62190;51.548;5.688;2022-09-09T01:05:07;8.78;;;5.30;;
73850;SDS011;62190;51.548;5.688;2022-09-09T01:07:36;7.60;;;4.60;;
73850;SDS011;62190;51.548;5.688;2022-09-09T01:10:04;8.05;;;4.53;;
73850;SDS011;62190;51.548;5.688;2022-09-09T01:12:46;11.45;;;5.58;;
73850;SDS011;62190;51.548;5.688;2022-09-09T01:15:18;9.65;;;4.67;;
73850;SDS011;62190;51.548;5.688;2022-09-09T01:17:51;8.25;;;4.33;;
73850;SDS011;62190;51.548;5.688;2022-09-09T01:20:31;7.78;;;3.92;;
73850;SDS011;62190;51.548;5.688;2022-09-09T01:23:15;9.63;;;4.65;;
73850;SDS011;62190;51.548;5.688;2022-09-09T01:28:30;9.15;;;3.80;;
73850;SDS011;62190;51.548;5.688;2022-09-09T01:31:00;10.15;;;4.22;;
73850;SDS011;62190;51.548;5.688;2022-09-09T01:33:31;8.20;;;3.77;;
73850;SDS011;62190;51.548;5.688;2022-09-09T01:36:06;11.18;;;3.92;;
73850;SDS011;62190;51.548;5.688;2022-09-09T01:38:36;9.50;;;3.98;;
73850;SDS011;62190;51.548;5.688;2022-09-09T01:41:04;12.37;;;4.12;;
73850;SDS011;62190;51.548;5.688;2022-09-09T01:43:32;9.13;;;3.98;;
73850;SDS011;62190;51.548;5.688;2022-09-09T01:46:00;12.70;;;4.53;;
73850;SDS011;62190;51.548;5.688;2022-09-09T01:48:28;8.30;;;4.55;;
73850;SDS011;62190;51.548;5.688;2022-09-09T01:50:56;7.42;;;4.05;;
73850;SDS011;62190;51.548;5.688;2022-09-09T01:53:25;8.53;;;4.58;;
73850;SDS011;62190;51.548;5.688;2022-09-09T01:56:02;8.53;;;4.25;;
73850;SDS011;62190;51.548;5.688;2022-09-09T01:58:59;9.30;;;4.55;;
73850;SDS011;62190;51.548;5.688;2022-09-09T02:01:38;9.50;;;4.75;;
73850;SDS011;62190;51.548;5.688;2022-09-09T02:04:24;12.78;;;4.90;;
73850;SDS011;62190;51.548;5.688;2022-09-09T02:06:52;7.22;;;4.53;;
73850;SDS011;62190;51.548;5.688;2022-09-09T02:09:25;10.45;;;5.00;;
73850;SDS011;62190;51.548;5.688;2022-09-09T02:11:56;6.20;;;4.15;;
73850;SDS011;62190;51.548;5.688;2022-09-09T02:14:25;9.15;;;4.45;;
73850;SDS011;62190;51.548;5.688;2022-09-09T02:16:55;9.75;;;4.85;;
73850;SDS011;62190;51.548;5.688;2022-09-09T02:22:01;9.50;;;4.80;;
73850;SDS011;62190;51.548;5.688;2022-09-09T02:24:29;13.20;;;6.00;;
73850;SDS011;62190;51.548;5.688;2022-09-09T02:26:59;11.93;;;5.85;;
73850;SDS011;62190;51.548;5.688;2022-09-09T02:29:34;8.50;;;5.72;;
73850;SDS011;62190;51.548;5.688;2022-09-09T02:32:04;11.53;;;6.08;;
73850;SDS011;62190;51.548;5.688;2022-09-09T02:34:34;17.80;;;8.08;;
73850;SDS011;62190;51.548;5.688;2022-09-09T02:37:05;12.55;;;6.72;;
73850;SDS011;62190;51.548;5.688;2022-09-09T02:39:34;15.30;;;8.23;;
73850;SDS011;62190;51.548;5.688;2022-09-09T02:42:01;14.30;;;7.12;;
73850;SDS011;62190;51.548;5.688;2022-09-09T02:44:31;13.38;;;6.25;;
73850;SDS011;62190;51.548;5.688;2022-09-09T02:47:20;12.80;;;6.70;;
73850;SDS011;62190;51.548;5.688;2022-09-09T02:50:04;15.65;;;6.42;;
73850;SDS011;62190;51.548;5.688;2022-09-09T02:52:50;13.93;;;6.58;;
73850;SDS011;62190;51.548;5.688;2022-09-09T02:58:03;15.05;;;6.75;;
73850;SDS011;62190;51.548;5.688;2022-09-09T03:00:33;10.98;;;6.62;;
73850;SDS011;62190;51.548;5.688;2022-09-09T03:03:05;10.95;;;6.17;;
73850;SDS011;62190;51.548;5.688;2022-09-09T03:05:34;11.73;;;6.12;;
73850;SDS011;62190;51.548;5.688;2022-09-09T03:08:04;12.85;;;6.83;;
73850;SDS011;62190;51.548;5.688;2022-09-09T03:10:31;12.85;;;5.67;;
73850;SDS011;62190;51.548;5.688;2022-09-09T03:12:59;13.72;;;6.37;;
73850;SDS011;62190;51.548;5.688;2022-09-09T03:15:26;10.53;;;5.67;;
73850;SDS011;62190;51.548;5.688;2022-09-09T03:17:56;15.30;;;7.08;;
73850;SDS011;62190;51.548;5.688;2022-09-09T03:20:28;13.10;;;6.60;;
73850;SDS011;62190;51.548;5.688;2022-09-09T03:22:56;13.55;;;7.58;;
73850;SDS011;62190;51.548;5.688;2022-09-09T03:25:25;18.55;;;8.43;;
73850;SDS011;62190;51.548;5.688;2022-09-09T03:27:53;18.17;;;7.33;;
73850;SDS011;62190;51.548;5.688;2022-09-09T03:30:22;11.53;;;6.25;;
73850;SDS011;62190;51.548;5.688;2022-09-09T03:32:51;15.10;;;7.80;;
73850;SDS011;62190;51.548;5.688;2022-09-09T03:35:18;13.98;;;6.92;;
73850;SDS011;62190;51.548;5.688;2022-09-09T03:37:46;13.00;;;6.87;;
73850;SDS011;62190;51.548;5.688;2022-09-09T03:40:14;16.20;;;7.65;;
73850;SDS011;62190;51.548;5.688;2022-09-09T03:42:41;12.37;;;6.33;;
73850;SDS011;62190;51.548;5.688;2022-09-09T03:45:09;14.90;;;6.83;;
73850;SDS011;62190;51.548;5.688;2022-09-09T03:47:37;11.95;;;6.03;;
73850;SDS011;62190;51.548;5.688;2022-09-09T03:50:05;12.03;;;5.80;;
73850;SDS011;62190;51.548;5.688;2022-09-09T03:52:38;17.37;;;6.92;;
73850;SDS011;62190;51.548;5.688;2022-09-09T03:55:08;11.33;;;6.05;;
73850;SDS011;62190;51.548;5.688;2022-09-09T03:57:37;14.07;;;5.85;;
73850;SDS011;62190;51.548;5.688;2022-09-09T04:00:04;9.60;;;5.28;;
73850;SDS011;62190;51.548;5.688;2022-09-09T04:02:34;10.48;;;5.15;;
73850;SDS011;62190;51.548;5.688;2022-09-09T04:05:01;14.65;;;5.70;;
73850;SDS011;62190;51.548;5.688;2022-09-09T04:07:29;12.20;;;4.92;;
73850;SDS011;62190;51.548;5.688;2022-09-09T04:09:58;15.78;;;5.72;;
73850;SDS011;62190;51.548;5.688;2022-09-09T04:12:25;13.15;;;5.62;;
73850;SDS011;62190;51.548;5.688;2022-09-09T04:14:52;14.15;;;5.58;;
73850;SDS011;62190;51.548;5.688;2022-09-09T04:17:21;11.63;;;4.62;;
73850;SDS011;62190;51.548;5.688;2022-09-09T04:19:48;11.12;;;4.95;;
73850;SDS011;62190;51.548;5.688;2022-09-09T04:22:17;12.98;;;5.20;;
73850;SDS011;62190;51.548;5.688;2022-09-09T04:24:46;12.75;;;5.08;;
73850;SDS011;62190;51.548;5.688;2022-09-09T04:27:13;17.07;;;5.17;;
73850;SDS011;62190;51.548;5.688;2022-09-09T04:29:41;13.88;;;5.92;;
73850;SDS011;62190;51.548;5.688;2022-09-09T04:32:08;9.78;;;4.87;;
73850;SDS011;62190;51.548;5.688;2022-09-09T04:34:37;13.20;;;4.60;;
73850;SDS011;62190;51.548;5.688;2022-09-09T04:37:06;10.93;;;4.97;;
73850;SDS011;62190;51.548;5.688;2022-09-09T04:39:33;11.30;;;5.12;;
73850;SDS011;62190;51.548;5.688;2022-09-09T04:42:04;10.48;;;4.78;;
73850;SDS011;62190;51.548;5.688;2022-09-09T04:44:34;13.68;;;5.35;;
73850;SDS011;62190;51.548;5.688;2022-09-09T04:47:03;12.58;;;4.80;;
73850;SDS011;62190;51.548;5.688;2022-09-09T04:49:30;14.05;;;5.33;;
73850;SDS011;62190;51.548;5.688;2022-09-09T04:51:57;10.15;;;3.80;;
73850;SDS011;62190;51.548;5.688;2022-09-09T04:54:25;12.82;;;4.55;;
73850;SDS011;62190;51.548;5.688;2022-09-09T04:56:54;14.83;;;5.22;;
73850;SDS011;62190;51.548;5.688;2022-09-09T04:59:21;10.63;;;4.37;;
73850;SDS011;62190;51.548;5.688;2022-09-09T05:01:48;16.25;;;4.83;;
73850;SDS011;62190;51.548;5.688;2022-09-09T05:04:16;9.68;;;3.83;;
73850;SDS011;62190;51.548;5.688;2022-09-09T05:06:46;7.90;;;3.87;;
73850;SDS011;62190;51.548;5.688;2022-09-09T05:09:13;12.35;;;4.78;;
73850;SDS011;62190;51.548;5.688;2022-09-09T05:11:47;11.48;;;4.72;;
73850;SDS011;62190;51.548;5.688;2022-09-09T05:14:15;12.23;;;4.10;;
73850;SDS011;62190;51.548;5.688;2022-09-09T05:16:48;13.08;;;4.40;;
73850;SDS011;62190;51.548;5.688;2022-09-09T05:19:12;9.83;;;4.40;;
73850;SDS011;62190;51.548;5.688;2022-09-09T05:21:40;11.55;;;5.37;;
73850;SDS011;62190;51.548;5.688;2022-09-09T05:24:07;15.65;;;5.30;;
73850;SDS011;62190;51.548;5.688;2022-09-09T05:26:34;13.30;;;4.90;;
73850;SDS011;62190;51.548;5.688;2022-09-09T05:29:02;13.28;;;4.50;;
73850;SDS011;62190;51.548;5.688;2022-09-09T05:31:29;14.28;;;4.58;;
73850;SDS011;62190;51.548;5.688;2022-09-09T05:33:58;11.10;;;4.90;;
73850;SDS011;62190;51.548;5.688;2022-09-09T05:36:25;12.63;;;4.22;;
73850;SDS011;62190;51.548;5.688;2022-09-09T05:38:53;13.43;;;4.55;;
73850;SDS011;62190;51.548;5.688;2022-09-09T05:41:20;13.62;;;4.05;;
73850;SDS011;62190;51.548;5.688;2022-09-09T05:43:48;10.00;;;4.17;;
73850;SDS011;62190;51.548;5.688;2022-09-09T05:46:18;9.85;;;3.87;;
73850;SDS011;62190;51.548;5.688;2022-09-09T05:48:50;11.00;;;3.42;;
73850;SDS011;62190;51.548;5.688;2022-09-09T05:51:20;10.88;;;3.72;;
73850;SDS011;62190;51.548;5.688;2022-09-09T05:53:49;10.85;;;4.08;;
73850;SDS011;62190;51.548;5.688;2022-09-09T05:56:18;14.65;;;3.90;;
73850;SDS011;62190;51.548;5.688;2022-09-09T05:58:49;12.43;;;4.05;;
73850;SDS011;62190;51.548;5.688;2022-09-09T06:01:18;10.53;;;3.98;;
73850;SDS011;62190;51.548;5.688;2022-09-09T06:03:48;8.63;;;4.05;;
73850;SDS011;62190;51.548;5.688;2022-09-09T06:06:17;10.60;;;3.62;;
73850;SDS011;62190;51.548;5.688;2022-09-09T06:08:49;10.78;;;3.87;;
73850;SDS011;62190;51.548;5.688;2022-09-09T06:11:19;9.48;;;3.45;;
73850;SDS011;62190;51.548;5.688;2022-09-09T06:13:48;11.10;;;3.00;;
73850;SDS011;62190;51.548;5.688;2022-09-09T06:16:18;9.40;;;2.98;;
73850;SDS011;62190;51.548;5.688;2022-09-09T06:18:48;7.17;;;2.80;;
73850;SDS011;62190;51.548;5.688;2022-09-09T06:21:16;8.68;;;2.83;;
73850;SDS011;62190;51.548;5.688;2022-09-09T06:23:45;8.13;;;2.33;;
73850;SDS011;62190;51.548;5.688;2022-09-09T06:26:17;4.30;;;2.27;;
73850;SDS011;62190;51.548;5.688;2022-09-09T06:28:50;11.30;;;2.12;;
73850;SDS011;62190;51.548;5.688;2022-09-09T06:31:19;4.90;;;2.27;;
73850;SDS011;62190;51.548;5.688;2022-09-09T06:33:48;5.58;;;2.45;;
73850;SDS011;62190;51.548;5.688;2022-09-09T06:36:18;6.60;;;2.20;;
73850;SDS011;62190;51.548;5.688;2022-09-09T06:38:46;7.87;;;2.08;;
73850;SDS011;62190;51.548;5.688;2022-09-09T06:41:15;7.90;;;3.02;;
73850;SDS011;62190;51.548;5.688;2022-09-09T06:43:44;7.53;;;2.52;;
73850;SDS011;62190;51.548;5.688;2022-09-09T06:46:15;10.05;;;2.47;;
73850;SDS011;62190;51.548;5.688;2022-09-09T06:48:51;13.10;;;2.72;;
73850;SDS011;62190;51.548;5.688;2022-09-09T06:51:21;7.80;;;1.98;;
73850;SDS011;62190;51.548;5.688;2022-09-09T06:53:52;9.00;;;2.17;;
73850;SDS011;62190;51.548;5.688;2022-09-09T06:56:24;8.15;;;2.58;;
73850;SDS011;62190;51.548;5.688;2022-09-09T06:58:56;4.72;;;2.17;;
73850;SDS011;62190;51.548;5.688;2022-09-09T07:01:27;7.83;;;2.42;;
73850;SDS011;62190;51.548;5.688;2022-09-09T07:03:58;10.08;;;2.77;;
73850;SDS011;62190;51.548;5.688;2022-09-09T07:06:27;7.20;;;2.58;;
73850;SDS011;62190;51.548;5.688;2022-09-09T07:08:56;7.80;;;2.12;;
73850;SDS011;62190;51.548;5.688;2022-09-09T07:11:30;5.83;;;2.00;;
73850;SDS011;62190;51.548;5.688;2022-09-09T07:13:55;5.72;;;1.77;;
73850;SDS011;62190;51.548;5.688;2022-09-09T07:16:24;5.17;;;1.72;;
73850;SDS011;62190;51.548;5.688;2022-09-09T07:18:53;6.25;;;1.67;;
73850;SDS011;62190;51.548;5.688;2022-09-09T07:21:23;6.03;;;1.37;;
73850;SDS011;62190;51.548;5.688;2022-09-09T07:23:55;8.70;;;1.77;;
73850;SDS011;62190;51.548;5.688;2022-09-09T07:26:23;7.67;;;1.82;;
73850;SDS011;62190;51.548;5.688;2022-09-09T07:28:53;6.58;;;1.52;;
73850;SDS011;62190;51.548;5.688;2022-09-09T07:31:26;6.00;;;1.35;;
73850;SDS011;62190;51.548;5.688;2022-09-09T07:33:56;10.48;;;1.67;;
73850;SDS011;62190;51.548;5.688;2022-09-09T07:36:26;7.35;;;1.52;;
73850;SDS011;62190;51.548;5.688;2022-09-09T07:38:55;10.80;;;1.80;;
73850;SDS011;62190;51.548;5.688;2022-09-09T07:41:25;5.33;;;1.32;;
73850;SDS011;62190;51.548;5.688;2022-09-09T07:43:55;8.15;;;1.67;;
73850;SDS011;62190;51.548;5.688;2022-09-09T07:46:24;5.80;;;1.75;;
73850;SDS011;62190;51.548;5.688;2022-09-09T07:48:53;7.95;;;1.47;;
73850;SDS011;62190;51.548;5.688;2022-09-09T07:51:27;6.55;;;1.35;;
73850;SDS011;62190;51.548;5.688;2022-09-09T07:53:52;6.53;;;1.17;;
73850;SDS011;62190;51.548;5.688;2022-09-09T07:56:23;8.05;;;1.40;;
73850;SDS011;62190;51.548;5.688;2022-09-09T07:58:51;7.20;;;1.42;;
73850;SDS011;62190;51.548;5.688;2022-09-09T08:01:21;7.50;;;1.47;;
73850;SDS011;62190;51.548;5.688;2022-09-09T08:03:57;5.58;;;1.40;;
73850;SDS011;62190;51.548;5.688;2022-09-09T08:06:30;7.12;;;1.55;;
73850;SDS011;62190;51.548;5.688;2022-09-09T08:08:59;4.03;;;1.30;;
73850;SDS011;62190;51.548;5.688;2022-09-09T08:11:27;6.85;;;1.77;;
73850;SDS011;62190;51.548;5.688;2022-09-09T08:13:55;8.85;;;1.35;;
73850;SDS011;62190;51.548;5.688;2022-09-09T08:16:24;6.62;;;1.62;;
73850;SDS011;62190;51.548;5.688;2022-09-09T08:18:53;5.78;;;1.50;;
73850;SDS011;62190;51.548;5.688;2022-09-09T08:21:21;7.12;;;1.75;;
73850;SDS011;62190;51.548;5.688;2022-09-09T08:23:53;5.30;;;1.30;;
73850;SDS011;62190;51.548;5.688;2022-09-09T08:26:23;7.80;;;2.72;;
73850;SDS011;62190;51.548;5.688;2022-09-09T08:28:52;7.62;;;1.70;;
73850;SDS011;62190;51.548;5.688;2022-09-09T08:34:01;5.40;;;1.57;;
73850;SDS011;62190;51.548;5.688;2022-09-09T08:36:30;5.92;;;1.20;;
73850;SDS011;62190;51.548;5.688;2022-09-09T08:39:02;7.70;;;1.70;;
73850;SDS011;62190;51.548;5.688;2022-09-09T08:41:52;5.08;;;1.30;;
73850;SDS011;62190;51.548;5.688;2022-09-09T08:47:35;6.00;;;1.52;;
73850;SDS011;62190;51.548;5.688;2022-09-09T08:53:41;4.35;;;1.62;;
73850;SDS011;62190;51.548;5.688;2022-09-09T08:55:41;7.58;;;1.57;;
73850;SDS011;62190;51.548;5.688;2022-09-09T08:58:17;5.80;;;1.20;;
73850;SDS011;62190;51.548;5.688;2022-09-09T09:03:53;10.32;;;2.20;;
73850;SDS011;62190;51.548;5.688;2022-09-09T09:11:47;6.25;;;1.27;;
73850;SDS011;62190;51.548;5.688;2022-09-09T09:14:18;7.37;;;1.77;;
73850;SDS011;62190;51.548;5.688;2022-09-09T09:17:05;6.72;;;1.20;;
73850;SDS011;62190;51.548;5.688;2022-09-09T09:19:35;5.83;;;1.90;;
73850;SDS011;62190;51.548;5.688;2022-09-09T09:22:26;4.58;;;1.15;;
73850;SDS011;62190;51.548;5.688;2022-09-09T09:30:17;4.37;;;1.20;;
73850;SDS011;62190;51.548;5.688;2022-09-09T09:33:29;7.83;;;1.87;;
73850;SDS011;62190;51.548;5.688;2022-09-09T09:35:25;8.43;;;1.40;;
73850;SDS011;62190;51.548;5.688;2022-09-09T09:37:54;6.20;;;1.72;;
73850;SDS011;62190;51.548;5.688;2022-09-09T09:40:21;5.05;;;1.32;;
73850;SDS011;62190;51.548;5.688;2022-09-09T09:42:56;5.75;;;1.30;;
73850;SDS011;62190;51.548;5.688;2022-09-09T09:48:11;5.85;;;1.30;;
73850;SDS011;62190;51.548;5.688;2022-09-09T09:51:04;9.33;;;1.55;;
73850;SDS011;62190;51.548;5.688;2022-09-09T09:53:30;3.05;;;1.25;;
73850;SDS011;62190;51.548;5.688;2022-09-09T09:56:04;8.73;;;1.85;;
73850;SDS011;62190;51.548;5.688;2022-09-09T09:58:33;6.40;;;1.50;;
73850;SDS011;62190;51.548;5.688;2022-09-09T10:01:25;7.00;;;1.45;;
73850;SDS011;62190;51.548;5.688;2022-09-09T10:04:00;8.80;;;1.45;;
73850;SDS011;62190;51.548;5.688;2022-09-09T10:06:31;7.30;;;1.40;;
73850;SDS011;62190;51.548;5.688;2022-09-09T10:09:04;5.65;;;1.75;;
73850;SDS011;62190;51.548;5.688;2022-09-09T10:14:21;5.33;;;1.52;;
73850;SDS011;62190;51.548;5.688;2022-09-09T10:17:24;8.10;;;1.50;;
73850;SDS011;62190;51.548;5.688;2022-09-09T10:22:37;9.85;;;1.98;;
73850;SDS011;62190;51.548;5.688;2022-09-09T10:25:25;7.58;;;1.40;;
73850;SDS011;62190;51.548;5.688;2022-09-09T10:28:21;8.63;;;1.80;;
73850;SDS011;62190;51.548;5.688;2022-09-09T10:33:41;6.60;;;1.32;;
73850;SDS011;62190;51.548;5.688;2022-09-09T10:36:12;6.30;;;1.90;;
73850;SDS011;62190;51.548;5.688;2022-09-09T10:41:52;7.87;;;1.75;;
73850;SDS011;62190;51.548;5.688;2022-09-09T10:44:18;8.48;;;2.00;;
73850;SDS011;62190;51.548;5.688;2022-09-09T10:52:34;5.30;;;2.12;;
73850;SDS011;62190;51.548;5.688;2022-09-09T10:55:06;8.68;;;2.20;;
73850;SDS011;62190;51.548;5.688;2022-09-09T10:57:48;7.08;;;2.30;;
73850;SDS011;62190;51.548;5.688;2022-09-09T11:01:09;10.90;;;2.30;;
73850;SDS011;62190;51.548;5.688;2022-09-09T11:03:05;12.37;;;2.90;;
73850;SDS011;62190;51.548;5.688;2022-09-09T11:05:46;12.03;;;2.60;;
73850;SDS011;62190;51.548;5.688;2022-09-09T11:08:26;6.80;;;2.12;;
73850;SDS011;62190;51.548;5.688;2022-09-09T11:13:34;5.92;;;2.33;;
73850;SDS011;62190;51.548;5.688;2022-09-09T11:16:28;7.12;;;2.25;;
73850;SDS011;62190;51.548;5.688;2022-09-09T11:19:45;8.95;;;2.52;;
73850;SDS011;62190;51.548;5.688;2022-09-09T11:21:48;9.15;;;2.87;;
73850;SDS011;62190;51.548;5.688;2022-09-09T11:24:25;7.67;;;2.87;;
73850;SDS011;62190;51.548;5.688;2022-09-09T11:27:07;6.10;;;2.30;;
73850;SDS011;62190;51.548;5.688;2022-09-09T11:32:43;4.67;;;1.98;;
73850;SDS011;62190;51.548;5.688;2022-09-09T11:35:33;4.17;;;2.00;;
73850;SDS011;62190;51.548;5.688;2022-09-09T11:38:15;4.62;;;1.42;;
73850;SDS011;62190;51.548;5.688;2022-09-09T11:40:58;3.83;;;1.32;;
73850;SDS011;62190;51.548;5.688;2022-09-09T11:43:34;6.50;;;1.60;;
73850;SDS011;62190;51.548;5.688;2022-09-09T11:45:59;3.55;;;1.00;;
73850;SDS011;62190;51.548;5.688;2022-09-09T11:48:38;4.72;;;1.40;;
73850;SDS011;62190;51.548;5.688;2022-09-09T11:51:25;4.65;;;0.95;;
73850;SDS011;62190;51.548;5.688;2022-09-09T11:53:51;3.77;;;0.90;;
73850;SDS011;62190;51.548;5.688;2022-09-09T11:56:26;3.08;;;1.10;;
73850;SDS011;62190;51.548;5.688;2022-09-09T11:59:21;4.40;;;1.27;;
73850;SDS011;62190;51.548;5.688;2022-09-09T12:02:00;2.95;;;0.98;;
73850;SDS011;62190;51.548;5.688;2022-09-09T12:04:35;4.47;;;1.30;;
73850;SDS011;62190;51.548;5.688;2022-09-09T12:09:46;5.45;;;1.65;;
73850;SDS011;62190;51.548;5.688;2022-09-09T12:12:26;6.05;;;1.40;;
73850;SDS011;62190;51.548;5.688;2022-09-09T12:17:41;4.17;;;1.45;;
73850;SDS011;62190;51.548;5.688;2022-09-09T12:20:20;3.20;;;1.35;;
73850;SDS011;62190;51.548;5.688;2022-09-09T12:28:26;5.12;;;1.95;;
73850;SDS011;62190;51.548;5.688;2022-09-09T12:31:02;6.67;;;1.70;;
73850;SDS011;62190;51.548;5.688;2022-09-09T12:33:36;8.18;;;1.60;;
73850;SDS011;62190;51.548;5.688;2022-09-09T12:36:11;4.65;;;1.30;;
73850;SDS011;62190;51.548;5.688;2022-09-09T12:38:40;6.97;;;2.00;;
73850;SDS011;62190;51.548;5.688;2022-09-09T12:41:21;7.17;;;1.60;;
73850;SDS011;62190;51.548;5.688;2022-09-09T12:43:51;4.33;;;1.50;;
73850;SDS011;62190;51.548;5.688;2022-09-09T12:46:21;4.60;;;1.30;;
73850;SDS011;62190;51.548;5.688;2022-09-09T12:48:51;4.95;;;1.20;;
73850;SDS011;62190;51.548;5.688;2022-09-09T12:51:27;4.92;;;1.47;;
73850;SDS011;62190;51.548;5.688;2022-09-09T12:53:56;2.92;;;1.10;;
73850;SDS011;62190;51.548;5.688;2022-09-09T12:56:30;2.45;;;1.10;;
73850;SDS011;62190;51.548;5.688;2022-09-09T12:58:58;2.83;;;0.95;;
73850;SDS011;62190;51.548;5.688;2022-09-09T13:01:27;7.90;;;1.72;;
73850;SDS011;62190;51.548;5.688;2022-09-09T13:03:56;6.47;;;1.60;;
73850;SDS011;62190;51.548;5.688;2022-09-09T13:06:24;5.22;;;1.17;;
73850;SDS011;62190;51.548;5.688;2022-09-09T13:08:55;3.83;;;1.25;;
73850;SDS011;62190;51.548;5.688;2022-09-09T13:11:58;7.30;;;1.52;;
73850;SDS011;62190;51.548;5.688;2022-09-09T13:14:03;8.08;;;1.52;;
73850;SDS011;62190;51.548;5.688;2022-09-09T13:16:33;5.80;;;1.22;;
73850;SDS011;62190;51.548;5.688;2022-09-09T13:19:05;4.30;;;1.47;;
73850;SDS011;62190;51.548;5.688;2022-09-09T13:21:34;4.08;;;1.20;;
73850;SDS011;62190;51.548;5.688;2022-09-09T13:24:03;7.28;;;1.27;;
73850;SDS011;62190;51.548;5.688;2022-09-09T13:26:33;5.58;;;1.72;;
73850;SDS011;62190;51.548;5.688;2022-09-09T13:29:08;5.37;;;1.85;;
73850;SDS011;62190;51.548;5.688;2022-09-09T13:31:43;6.90;;;1.75;;
73850;SDS011;62190;51.548;5.688;2022-09-09T13:34:12;6.37;;;1.55;;
73850;SDS011;62190;51.548;5.688;2022-09-09T13:36:54;6.53;;;1.35;;
73850;SDS011;62190;51.548;5.688;2022-09-09T13:39:23;4.08;;;1.35;;
73850;SDS011;62190;51.548;5.688;2022-09-09T13:41:50;7.95;;;1.52;;
73850;SDS011;62190;51.548;5.688;2022-09-09T13:44:22;3.90;;;1.35;;
73850;SDS011;62190;51.548;5.688;2022-09-09T13:47:00;4.97;;;0.90;;
73850;SDS011;62190;51.548;5.688;2022-09-09T13:49:31;4.58;;;1.00;;
73850;SDS011;62190;51.548;5.688;2022-09-09T13:52:32;4.40;;;1.00;;
73850;SDS011;62190;51.548;5.688;2022-09-09T13:54:41;4.10;;;0.90;;
73850;SDS011;62190;51.548;5.688;2022-09-09T13:57:17;4.03;;;0.80;;
73850;SDS011;62190;51.548;5.688;2022-09-09T13:59:48;4.85;;;1.00;;
73850;SDS011;62190;51.548;5.688;2022-09-09T14:02:16;4.83;;;1.00;;
73850;SDS011;62190;51.548;5.688;2022-09-09T14:04:44;4.03;;;0.95;;
73850;SDS011;62190;51.548;5.688;2022-09-09T14:07:15;5.12;;;1.17;;
73850;SDS011;62190;51.548;5.688;2022-09-09T14:09:43;5.37;;;1.50;;
73850;SDS011;62190;51.548;5.688;2022-09-09T14:12:12;5.55;;;1.55;;
73850;SDS011;62190;51.548;5.688;2022-09-09T14:14:41;6.95;;;1.72;;
73850;SDS011;62190;51.548;5.688;2022-09-09T14:17:09;7.83;;;3.02;;
73850;SDS011;62190;51.548;5.688;2022-09-09T14:19:36;4.85;;;1.85;;
73850;SDS011;62190;51.548;5.688;2022-09-09T14:22:04;5.92;;;1.67;;
73850;SDS011;62190;51.548;5.688;2022-09-09T14:24:31;4.50;;;1.17;;
73850;SDS011;62190;51.548;5.688;2022-09-09T14:26:58;5.53;;;1.85;;
73850;SDS011;62190;51.548;5.688;2022-09-09T14:29:25;4.20;;;1.30;;
73850;SDS011;62190;51.548;5.688;2022-09-09T14:31:53;2.08;;;1.00;;
73850;SDS011;62190;51.548;5.688;2022-09-09T14:34:20;5.65;;;1.22;;
73850;SDS011;62190;51.548;5.688;2022-09-09T14:36:48;4.95;;;1.05;;
73850;SDS011;62190;51.548;5.688;2022-09-09T14:39:16;5.72;;;1.30;;
73850;SDS011;62190;51.548;5.688;2022-09-09T14:41:44;9.60;;;1.92;;
73850;SDS011;62190;51.548;5.688;2022-09-09T14:44:11;4.55;;;1.77;;
73850;SDS011;62190;51.548;5.688;2022-09-09T14:46:38;8.23;;;1.80;;
73850;SDS011;62190;51.548;5.688;2022-09-09T14:49:07;6.78;;;1.90;;
73850;SDS011;62190;51.548;5.688;2022-09-09T14:51:36;4.33;;;1.62;;
73850;SDS011;62190;51.548;5.688;2022-09-09T14:54:04;9.00;;;2.37;;
73850;SDS011;62190;51.548;5.688;2022-09-09T14:56:32;7.60;;;2.42;;
73850;SDS011;62190;51.548;5.688;2022-09-09T14:59:03;3.55;;;1.22;;
73850;SDS011;62190;51.548;5.688;2022-09-09T15:01:30;5.17;;;1.50;;
73850;SDS011;62190;51.548;5.688;2022-09-09T15:03:59;4.67;;;1.57;;
73850;SDS011;62190;51.548;5.688;2022-09-09T15:06:30;3.65;;;1.05;;
73850;SDS011;62190;51.548;5.688;2022-09-09T15:08:59;3.65;;;1.10;;
73850;SDS011;62190;51.548;5.688;2022-09-09T15:11:27;4.05;;;0.78;;
73850;SDS011;62190;51.548;5.688;2022-09-09T15:13:57;5.55;;;1.27;;
73850;SDS011;62190;51.548;5.688;2022-09-09T15:16:26;4.12;;;0.95;;
73850;SDS011;62190;51.548;5.688;2022-09-09T15:18:56;3.25;;;1.32;;
73850;SDS011;62190;51.548;5.688;2022-09-09T15:21:24;3.40;;;1.00;;
73850;SDS011;62190;51.548;5.688;2022-09-09T15:23:52;2.75;;;0.80;;
73850;SDS011;62190;51.548;5.688;2022-09-09T15:26:20;3.08;;;0.90;;
73850;SDS011;62190;51.548;5.688;2022-09-09T15:28:47;4.90;;;1.20;;
73850;SDS011;62190;51.548;5.688;2022-09-09T15:31:17;2.37;;;1.05;;
73850;SDS011;62190;51.548;5.688;2022-09-09T15:33:55;4.58;;;1.10;;
73850;SDS011;62190;51.548;5.688;2022-09-09T15:36:30;6.05;;;1.10;;
73850;SDS011;62190;51.548;5.688;2022-09-09T15:38:58;4.80;;;1.30;;
73850;SDS011;62190;51.548;5.688;2022-09-09T15:41:27;3.75;;;1.10;;
73850;SDS011;62190;51.548;5.688;2022-09-09T15:43:55;3.70;;;0.98;;
73850;SDS011;62190;51.548;5.688;2022-09-09T15:46:24;3.85;;;1.25;;
73850;SDS011;62190;51.548;5.688;2022-09-09T15:49:17;3.55;;;1.20;;
73850;SDS011;62190;51.548;5.688;2022-09-09T15:51:50;4.55;;;1.07;;
73850;SDS011;62190;51.548;5.688;2022-09-09T15:54:19;3.67;;;0.70;;
73850;SDS011;62190;51.548;5.688;2022-09-09T15:56:55;2.52;;;0.88;;
73850;SDS011;62190;51.548;5.688;2022-09-09T15:59:22;2.37;;;0.40;;
73850;SDS011;62190;51.548;5.688;2022-09-09T16:01:50;2.30;;;0.57;;
73850;SDS011;62190;51.548;5.688;2022-09-09T16:04:18;2.65;;;0.75;;
73850;SDS011;62190;51.548;5.688;2022-09-09T16:06:58;2.52;;;0.62;;
73850;SDS011;62190;51.548;5.688;2022-09-09T16:09:27;1.32;;;0.70;;
73850;SDS011;62190;51.548;5.688;2022-09-09T16:11:58;4.70;;;1.10;;
73850;SDS011;62190;51.548;5.688;2022-09-09T16:14:31;3.90;;;1.32;;
73850;SDS011;62190;51.548;5.688;2022-09-09T16:17:00;5.62;;;1.20;;
73850;SDS011;62190;51.548;5.688;2022-09-09T16:19:28;5.20;;;1.40;;
73850;SDS011;62190;51.548;5.688;2022-09-09T16:21:55;2.70;;;1.10;;
73850;SDS011;62190;51.548;5.688;2022-09-09T16:24:22;2.67;;;1.37;;
73850;SDS011;62190;51.548;5.688;2022-09-09T16:26:51;3.50;;;1.55;;
73850;SDS011;62190;51.548;5.688;2022-09-09T16:29:19;3.08;;;1.50;;